Time;durP1;ratioP1;P1;durP2;ratioP2;P2;SDS_P1;SDS_P2;PMS_P1;PMS_P2;Temp;Humidity;BMP_temperature;BMP_pressure;BME280_temperature;BME280_humidity;BME280_pressure;Samples;Min_cycle;Max_cycle;Signal;HPM_P1;HPM_P2
2022/08/30 00:01:01;;;;;;;2.90;1.65;;;16.10;79.90;;;;;;5052418;28;20040;-47
2022/08/30 00:02:00;;;;;;;4.63;1.00;;;16.10;79.70;;;;;;5071439;28;20025;-47
2022/08/30 00:04:25;;;;;;;2.97;0.90;;;16.20;79.20;;;;;;5067983;28;20171;-48
2022/08/30 00:06:52;;;;;;;4.55;1.27;;;16.20;78.90;;;;;;5053217;28;20108;-46
2022/08/30 00:09:17;;;;;;;2.28;0.80;;;16.20;78.70;;;;;;5057879;28;20016;-46
2022/08/30 00:11:43;;;;;;;5.43;1.33;;;16.20;78.60;;;;;;5065850;28;20037;-48
2022/08/30 00:14:08;;;;;;;2.03;0.80;;;16.20;78.90;;;;;;5064611;28;20032;-49
2022/08/30 00:16:34;;;;;;;2.38;0.77;;;16.20;78.70;;;;;;5067766;28;20043;-46
2022/08/30 00:19:01;;;;;;;3.00;0.88;;;16.30;78.90;;;;;;5076845;28;20048;-47
2022/08/30 00:21:27;;;;;;;2.10;0.90;;;16.20;79.00;;;;;;5034701;28;20044;-46
2022/08/30 00:23:53;;;;;;;2.45;0.70;;;16.20;78.90;;;;;;5045527;28;20024;-46
2022/08/30 00:26:19;;;;;;;3.92;0.93;;;16.30;78.70;;;;;;5033868;28;20029;-47
2022/08/30 00:28:47;;;;;;;1.92;0.88;;;16.30;78.50;;;;;;5054257;28;20090;-46
2022/08/30 00:31:12;;;;;;;3.65;1.08;;;16.20;78.10;;;;;;5051986;28;20025;-48
2022/08/30 00:33:38;;;;;;;2.88;1.00;;;16.30;77.80;;;;;;5066627;28;20329;-49
2022/08/30 00:36:04;;;;;;;4.03;1.38;;;16.20;77.80;;;;;;5056794;28;20037;-46
2022/08/30 00:38:30;;;;;;;2.15;0.95;;;16.20;77.80;;;;;;5068275;28;20028;-46
2022/08/30 00:40:56;;;;;;;2.75;1.05;;;16.20;77.60;;;;;;5033913;28;20375;-46
2022/08/30 00:43:28;;;;;;;3.35;1.25;;;16.10;77.60;;;;;;5037174;28;20027;-47
2022/08/30 00:45:54;;;;;;;5.18;2.03;;;16.20;77.90;;;;;;5051260;28;20079;-46
2022/08/30 00:48:21;;;;;;;4.53;1.27;;;16.10;78.00;;;;;;5050464;28;20462;-46
2022/08/30 00:50:52;;;;;;;4.90;1.63;;;16.10;78.00;;;;;;5036793;28;20057;-47
2022/08/30 00:53:23;;;;;;;1.83;0.98;;;16.10;77.80;;;;;;5068194;28;20034;-46
2022/08/30 00:55:49;;;;;;;3.85;0.90;;;16.10;77.60;;;;;;5044838;28;20028;-46
2022/08/30 00:58:20;;;;;;;3.42;1.02;;;16.10;77.70;;;;;;5091748;28;20077;-51
2022/08/30 01:00:48;;;;;;;2.30;1.00;;;16.00;77.90;;;;;;5089868;28;20469;-46
2022/08/30 01:03:14;;;;;;;2.33;0.73;;;16.00;77.90;;;;;;5068221;28;20354;-46
2022/08/30 01:05:41;;;;;;;2.45;1.10;;;16.00;78.10;;;;;;5053508;28;20037;-46
2022/08/30 01:08:06;;;;;;;3.75;1.20;;;16.00;78.30;;;;;;5068696;28;20047;-46
2022/08/30 01:10:36;;;;;;;2.45;0.95;;;15.90;78.60;;;;;;5033934;28;20104;-47
2022/08/30 01:13:03;;;;;;;3.33;1.00;;;15.90;78.70;;;;;;5057947;28;20031;-46
2022/08/30 01:15:31;;;;;;;2.92;1.20;;;15.80;78.70;;;;;;5063947;28;20039;-46
2022/08/30 01:18:00;;;;;;;3.55;1.17;;;15.80;78.70;;;;;;5070647;28;20358;-50
2022/08/30 01:20:48;;;;;;;2.35;0.93;;;15.70;79.00;;;;;;5061168;28;20362;-47
2022/08/30 01:23:17;;;;;;;3.20;1.00;;;15.70;79.10;;;;;;5050759;28;20029;-46
2022/08/30 01:25:45;;;;;;;4.28;1.00;;;15.60;79.40;;;;;;5058995;28;20036;-49
2022/08/30 01:28:16;;;;;;;2.08;0.98;;;15.60;79.30;;;;;;5050666;28;20039;-47
2022/08/30 01:30:42;;;;;;;2.30;1.00;;;15.50;79.40;;;;;;5059615;28;20024;-47
2022/08/30 01:33:09;;;;;;;3.35;1.65;;;15.40;79.60;;;;;;5069975;28;20020;-51
2022/08/30 01:35:48;;;;;;;4.78;1.10;;;15.40;80.00;;;;;;5040508;28;20172;-48
2022/08/30 01:38:15;;;;;;;2.92;1.35;;;15.40;80.20;;;;;;5031797;28;20459;-46
2022/08/30 01:40:41;;;;;;;3.72;1.08;;;15.30;80.50;;;;;;5043624;28;20361;-46
2022/08/30 01:43:07;;;;;;;2.97;1.00;;;15.30;80.80;;;;;;5066143;28;20024;-48
2022/08/30 01:45:33;;;;;;;1.73;0.90;;;15.30;80.80;;;;;;5055468;28;20072;-47
2022/08/30 01:47:58;;;;;;;3.58;1.25;;;15.20;81.10;;;;;;5049763;28;20064;-48
2022/08/30 01:50:26;;;;;;;4.07;1.30;;;15.20;81.30;;;;;;5041357;28;20068;-48
2022/08/30 01:52:52;;;;;;;2.53;1.20;;;15.20;81.30;;;;;;5050095;28;20032;-46
2022/08/30 01:55:18;;;;;;;5.07;1.17;;;15.20;80.70;;;;;;5055561;28;20029;-49
2022/08/30 01:57:48;;;;;;;4.25;1.63;;;15.30;80.10;;;;;;5051569;28;20050;-46
2022/08/30 02:00:14;;;;;;;4.45;1.20;;;15.30;80.10;;;;;;5065239;28;20082;-46
2022/08/30 02:02:40;;;;;;;4.07;1.17;;;15.30;80.00;;;;;;5055017;28;20033;-46
2022/08/30 02:05:06;;;;;;;4.25;1.23;;;15.40;80.00;;;;;;5060469;28;20024;-46
2022/08/30 02:07:32;;;;;;;3.38;1.30;;;15.40;80.10;;;;;;5049752;28;20029;-46
2022/08/30 02:09:58;;;;;;;2.88;1.30;;;15.40;80.10;;;;;;5031716;28;20029;-46
2022/08/30 02:12:26;;;;;;;3.83;1.05;;;15.50;80.20;;;;;;5048938;28;20465;-46
2022/08/30 02:14:52;;;;;;;4.35;1.20;;;15.50;80.20;;;;;;5036934;28;20040;-47
2022/08/30 02:17:18;;;;;;;2.40;1.10;;;15.50;80.30;;;;;;5052942;28;20021;-47
2022/08/30 02:19:44;;;;;;;3.15;1.25;;;15.50;80.50;;;;;;5049910;28;20029;-47
2022/08/30 02:22:10;;;;;;;3.90;1.17;;;15.50;80.60;;;;;;5053187;28;20048;-47
2022/08/30 02:24:36;;;;;;;2.25;1.05;;;15.50;80.60;;;;;;5049491;28;20036;-45
2022/08/30 02:27:02;;;;;;;7.75;2.20;;;15.50;80.80;;;;;;5049432;28;20542;-45
2022/08/30 02:29:28;;;;;;;4.43;1.25;;;15.50;80.90;;;;;;5057580;28;20024;-46
2022/08/30 02:31:54;;;;;;;4.10;1.58;;;15.50;81.30;;;;;;5059696;28;20031;-46
2022/08/30 02:34:19;;;;;;;4.55;1.48;;;15.50;81.40;;;;;;5037336;28;20309;-47
2022/08/30 02:36:45;;;;;;;3.53;1.60;;;15.40;81.50;;;;;;5067584;28;20036;-47
2022/08/30 02:39:14;;;;;;;9.18;1.55;;;15.50;81.40;;;;;;5068166;28;20039;-46
2022/08/30 02:41:40;;;;;;;3.95;1.42;;;15.50;80.90;;;;;;5069368;28;20457;-47
2022/08/30 02:44:07;;;;;;;3.03;1.38;;;15.50;80.70;;;;;;5050358;28;20040;-46
2022/08/30 02:46:34;;;;;;;6.07;1.48;;;15.60;80.40;;;;;;5043461;28;20122;-46
2022/08/30 02:49:00;;;;;;;4.93;2.20;;;15.60;80.20;;;;;;5053207;28;20534;-48
2022/08/30 02:51:26;;;;;;;2.28;1.00;;;15.60;80.30;;;;;;5053023;28;20426;-47
2022/08/30 02:53:51;;;;;;;4.60;1.25;;;15.60;79.90;;;;;;5050402;28;20032;-47
2022/08/30 02:56:17;;;;;;;5.95;1.77;;;15.60;79.80;;;;;;5061339;28;20033;-46
2022/08/30 02:58:46;;;;;;;4.18;1.50;;;15.60;77.80;;;;;;5061212;28;20156;-46
2022/08/30 03:01:17;;;;;;;2.70;1.25;;;15.60;77.90;;;;;;5059767;28;20138;-46
2022/08/30 03:03:44;;;;;;;3.40;1.40;;;15.60;78.20;;;;;;5058255;28;20024;-46
2022/08/30 03:06:10;;;;;;;4.68;1.05;;;15.60;78.20;;;;;;5053844;28;20034;-46
2022/08/30 03:08:36;;;;;;;3.65;1.20;;;15.60;78.70;;;;;;5063350;28;20096;-46
2022/08/30 03:11:02;;;;;;;4.45;1.65;;;15.60;78.70;;;;;;5068016;28;20120;-45
2022/08/30 03:13:28;;;;;;;3.67;1.15;;;15.60;78.60;;;;;;5067245;28;20124;-46
2022/08/30 03:15:54;;;;;;;3.20;1.30;;;15.60;78.80;;;;;;5053887;28;20179;-46
2022/08/30 03:18:21;;;;;;;4.68;1.27;;;15.60;79.00;;;;;;5058185;28;20476;-46
2022/08/30 03:20:47;;;;;;;3.40;1.38;;;15.60;79.20;;;;;;5031886;28;20044;-47
2022/08/30 03:23:14;;;;;;;4.20;1.67;;;15.60;79.50;;;;;;5067335;28;20044;-47
2022/08/30 03:25:40;;;;;;;3.78;1.40;;;15.60;79.40;;;;;;5052628;28;20071;-47
2022/08/30 03:28:06;;;;;;;2.55;1.42;;;15.60;78.80;;;;;;5052649;28;20057;-46
2022/08/30 03:30:33;;;;;;;3.40;1.30;;;15.60;78.70;;;;;;5052963;28;20098;-46
2022/08/30 03:32:59;;;;;;;2.55;1.10;;;15.60;78.00;;;;;;5043856;28;20016;-46
2022/08/30 03:35:25;;;;;;;4.68;1.20;;;15.50;77.50;;;;;;5034886;28;20440;-47
2022/08/30 03:37:51;;;;;;;2.50;1.38;;;15.50;77.10;;;;;;5067895;28;20063;-45
2022/08/30 03:40:21;;;;;;;3.15;1.10;;;15.50;77.10;;;;;;5037103;28;20035;-47
2022/08/30 03:42:47;;;;;;;3.53;1.23;;;15.50;76.70;;;;;;5052838;28;20360;-47
2022/08/30 03:45:18;;;;;;;5.40;2.10;;;15.50;76.70;;;;;;5052219;28;20442;-49
2022/08/30 03:47:44;;;;;;;2.95;1.25;;;15.60;76.90;;;;;;5035183;28;20045;-46
2022/08/30 03:50:12;;;;;;;4.10;1.48;;;15.50;76.80;;;;;;5055829;28;20163;-46
2022/08/30 03:52:38;;;;;;;2.28;1.10;;;15.60;76.20;;;;;;5057563;28;20036;-48
2022/08/30 03:55:04;;;;;;;2.20;0.90;;;15.60;76.10;;;;;;5038059;28;20056;-46
2022/08/30 03:57:31;;;;;;;3.92;1.17;;;15.60;76.50;;;;;;5034178;28;20080;-46
2022/08/30 03:59:58;;;;;;;3.42;1.48;;;15.50;76.40;;;;;;5062566;28;20025;-45
2022/08/30 04:02:24;;;;;;;2.45;1.08;;;15.50;75.40;;;;;;5068687;28;20032;-46
2022/08/30 04:04:50;;;;;;;3.72;1.05;;;15.50;75.70;;;;;;5043768;28;20033;-46
2022/08/30 04:07:17;;;;;;;4.65;1.67;;;15.50;76.20;;;;;;5065375;28;20466;-48
2022/08/30 04:09:43;;;;;;;3.22;1.20;;;15.60;76.40;;;;;;5058109;28;20033;-46
2022/08/30 04:12:09;;;;;;;2.53;1.20;;;15.60;76.70;;;;;;5051319;28;20024;-46
2022/08/30 04:14:34;;;;;;;3.55;0.98;;;15.50;77.00;;;;;;5040215;28;20025;-46
2022/08/30 04:17:00;;;;;;;3.33;1.17;;;15.50;76.90;;;;;;5061677;28;20033;-46
2022/08/30 04:19:26;;;;;;;3.72;1.08;;;15.50;77.00;;;;;;5038937;28;20025;-46
2022/08/30 04:21:51;;;;;;;3.03;1.50;;;15.50;77.40;;;;;;5062325;28;20033;-46
2022/08/30 04:24:17;;;;;;;4.05;1.73;;;15.50;77.60;;;;;;5032206;28;20456;-46
2022/08/30 04:26:42;;;;;;;2.60;1.48;;;15.60;77.80;;;;;;5051515;28;20548;-46
2022/08/30 04:29:11;;;;;;;3.20;1.20;;;15.60;78.20;;;;;;5059366;28;20032;-46
2022/08/30 04:31:37;;;;;;;3.13;1.08;;;15.60;78.10;;;;;;5069928;28;20806;-46
2022/08/30 04:34:02;;;;;;;2.45;1.00;;;15.60;78.00;;;;;;5061495;28;20053;-46
2022/08/30 04:36:28;;;;;;;2.17;0.88;;;15.60;77.50;;;;;;5034334;28;20071;-47
2022/08/30 04:38:56;;;;;;;3.35;1.05;;;15.60;77.50;;;;;;5033984;28;20114;-47
2022/08/30 04:41:23;;;;;;;2.58;1.40;;;15.60;77.80;;;;;;5061152;28;20362;-46
2022/08/30 04:43:51;;;;;;;3.28;1.30;;;15.70;77.40;;;;;;5060619;28;20020;-46
2022/08/30 04:46:18;;;;;;;3.60;1.02;;;15.60;77.20;;;;;;5065733;28;20064;-46
2022/08/30 04:48:45;;;;;;;4.20;0.98;;;15.70;77.00;;;;;;5053437;28;20052;-48
2022/08/30 04:51:14;;;;;;;4.53;1.02;;;15.70;76.80;;;;;;5057305;28;20033;-49
2022/08/30 04:53:41;;;;;;;3.22;1.58;;;15.70;77.00;;;;;;5048396;28;20116;-46
2022/08/30 04:56:15;;;;;;;3.90;0.98;;;15.70;77.10;;;;;;5054315;28;20173;-47
2022/08/30 04:58:41;;;;;;;1.50;0.80;;;15.80;77.10;;;;;;5084081;28;20032;-46
2022/08/30 05:01:17;;;;;;;4.93;1.30;;;15.80;76.80;;;;;;5068110;28;20147;-46
2022/08/30 05:03:45;;;;;;;13.98;2.70;;;15.80;76.60;;;;;;5055791;28;20158;-46
2022/08/30 05:06:12;;;;;;;5.95;1.20;;;15.90;76.40;;;;;;5062426;28;20043;-47
2022/08/30 05:08:38;;;;;;;2.28;0.95;;;15.90;76.30;;;;;;5067932;28;20036;-46
2022/08/30 05:11:05;;;;;;;7.40;1.02;;;15.90;76.30;;;;;;5058244;28;20032;-51
2022/08/30 05:13:32;;;;;;;3.33;0.90;;;16.00;76.50;;;;;;5050321;28;20056;-47
2022/08/30 05:15:59;;;;;;;4.07;0.98;;;16.00;76.20;;;;;;5033264;28;20025;-46
2022/08/30 05:18:25;;;;;;;5.22;1.27;;;16.00;76.50;;;;;;5033358;28;20021;-46
2022/08/30 05:21:06;;;;;;;7.10;1.40;;;16.10;75.90;;;;;;5062071;28;20041;-46
2022/08/30 05:23:32;;;;;;;7.47;1.70;;;16.10;75.80;;;;;;5050425;28;20454;-47
2022/08/30 05:25:57;;;;;;;3.17;1.25;;;16.10;75.20;;;;;;5057319;28;20036;-48
2022/08/30 05:28:25;;;;;;;2.53;0.90;;;16.20;75.50;;;;;;5078687;28;20407;-47
2022/08/30 05:30:51;;;;;;;2.58;1.10;;;16.20;76.30;;;;;;5068729;28;20474;-50
2022/08/30 05:33:16;;;;;;;4.00;0.82;;;16.20;76.80;;;;;;5049112;28;20028;-45
2022/08/30 05:35:42;;;;;;;3.08;1.08;;;16.30;77.30;;;;;;5049953;28;20024;-47
2022/08/30 05:38:07;;;;;;;4.13;1.20;;;16.30;77.80;;;;;;5057485;28;20028;-49
2022/08/30 05:40:33;;;;;;;5.40;1.85;;;16.30;78.70;;;;;;5061890;28;20373;-48
2022/08/30 05:42:59;;;;;;;3.13;1.05;;;16.40;78.60;;;;;;5036608;28;20029;-48
2022/08/30 05:45:24;;;;;;;3.15;1.15;;;16.30;78.40;;;;;;5048967;28;20025;-47
2022/08/30 05:47:50;;;;;;;2.38;1.00;;;16.30;77.30;;;;;;5054443;28;20048;-47
2022/08/30 05:50:18;;;;;;;3.63;1.25;;;16.40;77.20;;;;;;5062126;28;20482;-47
2022/08/30 05:52:44;;;;;;;3.33;0.98;;;16.40;77.50;;;;;;5044477;28;20068;-47
2022/08/30 05:55:17;;;;;;;2.25;0.80;;;16.40;77.40;;;;;;5068583;28;20056;-46
2022/08/30 05:57:45;;;;;;;2.75;0.95;;;16.40;77.30;;;;;;5067648;28;20016;-47
2022/08/30 06:00:16;;;;;;;2.78;1.00;;;16.40;77.50;;;;;;5067622;28;20141;-47
2022/08/30 06:02:43;;;;;;;2.75;0.90;;;16.40;76.60;;;;;;5041606;28;20084;-47
2022/08/30 06:05:13;;;;;;;2.78;1.02;;;16.40;76.20;;;;;;5049946;28;20033;-48
2022/08/30 06:07:41;;;;;;;5.07;1.27;;;16.50;76.50;;;;;;5033169;28;20112;-47
2022/08/30 06:10:07;;;;;;;2.47;0.95;;;16.50;77.00;;;;;;5066763;28;20504;-47
2022/08/30 06:12:34;;;;;;;3.60;1.15;;;16.50;77.10;;;;;;5060809;28;20041;-47
2022/08/30 06:15:00;;;;;;;4.13;1.08;;;16.50;76.40;;;;;;5064804;28;20347;-47
2022/08/30 06:17:26;;;;;;;2.50;0.73;;;16.60;76.90;;;;;;5037032;28;20032;-46
2022/08/30 06:19:51;;;;;;;3.13;0.93;;;16.60;77.60;;;;;;5053420;28;20032;-46
2022/08/30 06:22:17;;;;;;;5.15;1.45;;;16.60;77.70;;;;;;5069802;28;20024;-47
2022/08/30 06:24:43;;;;;;;1.90;0.75;;;16.60;76.90;;;;;;5038322;28;20037;-46
2022/08/30 06:27:11;;;;;;;2.97;1.10;;;16.70;77.00;;;;;;5034310;28;20025;-47
2022/08/30 06:29:36;;;;;;;3.72;1.17;;;16.80;76.60;;;;;;5035148;28;20377;-46
2022/08/30 06:32:02;;;;;;;2.38;1.00;;;16.80;76.90;;;;;;5068812;28;20120;-49
2022/08/30 06:34:28;;;;;;;1.80;0.82;;;16.80;76.80;;;;;;5038904;28;20379;-48
2022/08/30 06:36:56;;;;;;;7.55;1.52;;;16.80;76.80;;;;;;5047705;28;20047;-46
2022/08/30 06:39:22;;;;;;;4.53;0.90;;;16.80;77.40;;;;;;5059223;28;20033;-48
2022/08/30 06:41:48;;;;;;;3.50;1.10;;;16.90;78.30;;;;;;5051992;28;20111;-49
2022/08/30 06:44:13;;;;;;;2.47;0.90;;;16.90;78.60;;;;;;5068387;28;20045;-46
2022/08/30 06:46:39;;;;;;;2.80;1.15;;;16.90;78.60;;;;;;5069173;28;20028;-46
2022/08/30 06:49:08;;;;;;;4.30;1.15;;;16.90;77.90;;;;;;5061336;28;20052;-47
2022/08/30 06:51:37;;;;;;;4.30;1.00;;;16.90;78.10;;;;;;5055167;28;20100;-47
2022/08/30 06:54:04;;;;;;;7.22;1.30;;;16.90;77.20;;;;;;5036035;28;20090;-47
2022/08/30 06:56:32;;;;;;;2.80;1.23;;;16.90;77.30;;;;;;5047866;28;20426;-49
2022/08/30 06:58:58;;;;;;;2.10;1.10;;;16.90;77.20;;;;;;5062407;28;20045;-48
2022/08/30 07:01:26;;;;;;;2.35;0.95;;;17.00;77.50;;;;;;5039555;28;20514;-48
2022/08/30 07:03:52;;;;;;;3.97;1.23;;;16.90;77.60;;;;;;5057692;28;20036;-47
2022/08/30 07:06:19;;;;;;;1.67;0.90;;;17.00;78.00;;;;;;5050325;28;20048;-48
2022/08/30 07:08:46;;;;;;;3.85;1.38;;;17.00;77.10;;;;;;5054241;28;20025;-47
2022/08/30 07:11:12;;;;;;;3.40;1.48;;;17.10;77.00;;;;;;5055674;28;20100;-47
2022/08/30 07:13:40;;;;;;;4.78;1.33;;;17.20;77.50;;;;;;5048955;28;20025;-48
2022/08/30 07:16:11;;;;;;;4.20;1.17;;;17.30;77.60;;;;;;5048721;28;20025;-49
2022/08/30 07:18:55;;;;;;;2.58;1.05;;;17.40;76.70;;;;;;5045322;28;20045;-46
2022/08/30 07:21:31;;;;;;;3.58;0.90;;;17.50;76.40;;;;;;5058350;28;20036;-46
2022/08/30 07:23:58;;;;;;;2.08;0.80;;;17.50;75.90;;;;;;5067825;28;20040;-48
2022/08/30 07:26:42;;;;;;;3.55;1.77;;;17.50;75.30;;;;;;5055156;28;20033;-49
2022/08/30 07:29:08;;;;;;;4.53;1.23;;;17.50;75.50;;;;;;5063205;28;20036;-46
2022/08/30 07:31:36;;;;;;;3.35;1.10;;;17.40;75.10;;;;;;5047794;28;20025;-46
2022/08/30 07:34:06;;;;;;;3.13;1.40;;;17.40;76.00;;;;;;5062912;28;20020;-48
2022/08/30 07:36:32;;;;;;;;;;;17.40;76.10;;;;;;5050560;28;20033;-46
2022/08/30 07:39:00;;;;;;;2.97;0.85;;;17.40;74.90;;;;;;5048519;28;20029;-48
2022/08/30 07:41:29;;;;;;;2.38;1.25;;;17.40;74.20;;;;;;5035896;28;20443;-48
2022/08/30 07:43:56;;;;;;;1.77;0.98;;;17.50;74.00;;;;;;5048253;28;20048;-48
2022/08/30 07:46:23;;;;;;;3.45;1.08;;;17.70;74.10;;;;;;5048581;28;20037;-49
2022/08/30 07:48:49;;;;;;;2.28;1.00;;;17.90;73.50;;;;;;5051576;28;20041;-47
2022/08/30 07:51:17;;;;;;;5.15;1.17;;;18.20;72.60;;;;;;5041088;28;20029;-48
2022/08/30 07:53:43;;;;;;;3.42;0.77;;;18.60;71.00;;;;;;5053389;28;20023;-47
2022/08/30 07:56:10;;;;;;;4.72;0.88;;;18.90;69.30;;;;;;5049965;28;20699;-47
2022/08/30 07:58:38;;;;;;;2.92;0.80;;;19.30;68.90;;;;;;5068062;28;20102;-47
2022/08/30 08:01:08;;;;;;;2.42;0.95;;;19.80;68.90;;;;;;5064340;28;20515;-47
2022/08/30 08:03:35;;;;;;;4.93;0.90;;;20.20;66.70;;;;;;5063490;28;20065;-46
2022/08/30 08:06:05;;;;;;;3.13;1.23;;;20.70;64.10;;;;;;5061686;28;20028;-49
2022/08/30 08:08:32;;;;;;;;;;;20.80;65.00;;;;;;5054019;28;20029;-47
2022/08/30 08:11:14;;;;;;;2.45;1.05;;;21.20;63.40;;;;;;5051489;28;20348;-47
2022/08/30 08:13:42;;;;;;;3.67;1.40;;;21.40;62.50;;;;;;5049872;28;20031;-47
2022/08/30 08:16:09;;;;;;;2.50;1.05;;;21.60;60.80;;;;;;5062585;28;20029;-47
2022/08/30 08:18:36;;;;;;;1.92;0.88;;;21.50;61.60;;;;;;5051557;28;20047;-47
2022/08/30 08:21:06;;;;;;;1.90;0.80;;;21.70;60.80;;;;;;5045070;28;20466;-47
2022/08/30 08:23:31;;;;;;;;;;;21.90;59.20;;;;;;5051754;28;20033;-46
2022/08/30 08:25:59;;;;;;;3.35;1.63;;;21.90;59.30;;;;;;5071409;28;19912;-48
2022/08/30 08:28:25;;;;;;;1.75;0.90;;;21.80;59.10;;;;;;5066352;28;20033;-48
2022/08/30 08:30:52;;;;;;;4.05;0.90;;;22.00;59.40;;;;;;5052626;28;20095;-48
2022/08/30 08:33:21;;;;;;;3.10;1.05;;;21.70;59.10;;;;;;5051585;28;20112;-47
2022/08/30 08:35:48;;;;;;;2.75;1.08;;;21.90;57.60;;;;;;5054057;28;20035;-47
2022/08/30 08:38:17;;;;;;;3.85;0.88;;;21.90;58.60;;;;;;5053032;28;20036;-47
2022/08/30 08:41:05;;;;;;;3.17;1.10;;;21.90;58.90;;;;;;5042853;28;20090;-50
2022/08/30 08:43:34;;;;;;;5.50;1.10;;;21.80;59.80;;;;;;5068792;28;20098;-48
2022/08/30 08:46:20;;;;;;;3.90;0.95;;;21.40;58.80;;;;;;5056522;28;20033;-50
2022/08/30 08:48:50;;;;;;;3.70;1.23;;;21.60;60.40;;;;;;5056624;28;20369;-48
2022/08/30 08:54:10;;;;;;;4.97;1.00;;;22.20;58.40;;;;;;5040537;28;20048;-47
2022/08/30 08:56:37;;;;;;;2.50;1.35;;;22.20;57.70;;;;;;5070957;28;20502;-49
2022/08/30 08:59:07;;;;;;;2.45;1.13;;;21.80;58.10;;;;;;5065914;28;20088;-47
2022/08/30 09:01:37;;;;;;;3.30;1.00;;;21.40;59.80;;;;;;5087400;28;20107;-49
2022/08/30 09:04:14;;;;;;;5.40;1.40;;;21.10;61.30;;;;;;5069503;28;20032;-47
2022/08/30 09:06:50;;;;;;;2.80;1.20;;;20.90;61.80;;;;;;5052555;28;20029;-47
2022/08/30 09:09:25;;;;;;;2.75;1.00;;;20.90;61.60;;;;;;5059189;28;20033;-49
2022/08/30 09:11:51;;;;;;;4.20;1.05;;;20.70;62.00;;;;;;5068511;28;20420;-47
2022/08/30 09:14:22;;;;;;;5.07;1.00;;;20.60;63.00;;;;;;5062764;28;20049;-48
2022/08/30 09:16:55;;;;;;;2.78;1.10;;;20.60;63.90;;;;;;5063575;28;20027;-48
2022/08/30 09:19:58;;;;;;;5.75;1.33;;;20.50;63.40;;;;;;5065548;28;20389;-47
2022/08/30 09:22:42;;;;;;;3.10;1.10;;;20.40;62.10;;;;;;4969979;28;20177;-47
2022/08/30 09:25:26;;;;;;;25.38;4.93;;;20.40;63.60;;;;;;4987721;28;20484;-47
2022/08/30 09:28:07;;;;;;;2.22;0.80;;;20.50;63.60;;;;;;4973863;28;20053;-51
2022/08/30 09:30:35;;;;;;;10.30;2.90;;;20.40;62.00;;;;;;4985871;28;20096;-47
2022/08/30 09:33:19;;;;;;;3.15;1.00;;;20.30;63.00;;;;;;4986880;28;20042;-49
2022/08/30 09:35:53;;;;;;;2.15;1.00;;;20.30;63.30;;;;;;4953734;28;20038;-48
2022/08/30 09:38:31;;;;;;;1.30;0.60;;;20.40;64.60;;;;;;4964999;28;20046;-47
2022/08/30 09:41:01;;;;;;;3.15;1.38;;;20.60;64.70;;;;;;4987933;28;20038;-47
2022/08/30 09:43:33;;;;;;;1.60;0.80;;;20.60;64.40;;;;;;4973380;28;20070;-47
2022/08/30 09:45:58;;;;;;;2.13;1.17;;;20.90;64.60;;;;;;4986239;28;20034;-46
2022/08/30 09:48:43;;;;;;;2.40;1.13;;;21.00;65.40;;;;;;4986830;28;20058;-47
2022/08/30 09:51:09;;;;;;;3.33;1.55;;;21.50;65.10;;;;;;4981375;28;20484;-50
2022/08/30 09:53:53;;;;;;;3.63;1.40;;;21.80;63.70;;;;;;4956800;28;20060;-47
2022/08/30 09:56:42;;;;;;;18.63;3.83;;;22.40;62.80;;;;;;5017692;28;20348;-47
2022/08/30 09:59:40;;;;;;;4.35;1.00;;;22.50;62.20;;;;;;5050396;28;20037;-47
2022/08/30 10:02:34;;;;;;;4.32;1.10;;;22.40;61.20;;;;;;5051910;28;20028;-48
2022/08/30 10:05:03;;;;;;;2.40;1.08;;;21.80;61.40;;;;;;5050403;28;20051;-47
2022/08/30 10:08:04;;;;;;;4.10;1.23;;;21.40;62.60;;;;;;5049750;28;20446;-47
2022/08/30 10:10:52;;;;;;;5.20;1.73;;;21.00;64.00;;;;;;5050244;28;20021;-47
2022/08/30 10:13:30;;;;;;;2.53;0.95;;;20.70;65.50;;;;;;5031419;28;20049;-47
2022/08/30 10:16:24;;;;;;;4.68;1.42;;;20.90;67.60;;;;;;5053869;28;20028;-48
2022/08/30 10:19:36;;;;;;;2.45;0.73;;;21.10;67.30;;;;;;5033691;28;20043;-48
2022/08/30 10:22:16;;;;;;;3.90;1.35;;;21.10;66.50;;;;;;5064082;28;20183;-47
2022/08/30 10:24:52;;;;;;;5.72;1.95;;;21.10;65.40;;;;;;5049924;28;20021;-46
2022/08/30 10:27:33;;;;;;;3.13;0.80;;;21.30;65.50;;;;;;5054233;28;20037;-47
2022/08/30 10:30:12;;;;;;;4.78;1.00;;;21.50;65.60;;;;;;5067206;28;20454;-48
2022/08/30 10:32:50;;;;;;;4.45;1.30;;;21.90;64.50;;;;;;5053379;28;20024;-47
2022/08/30 10:35:22;;;;;;;2.70;1.00;;;22.20;66.00;;;;;;5063583;28;20438;-47
2022/08/30 10:37:59;;;;;;;2.95;0.90;;;22.40;63.80;;;;;;5063951;28;20043;-47
2022/08/30 10:43:54;;;;;;;2.45;1.20;;;22.20;64.00;;;;;;5062375;28;20031;-47
2022/08/30 10:46:38;;;;;;;3.63;1.10;;;22.50;63.50;;;;;;5061340;28;20315;-47
2022/08/30 10:49:16;;;;;;;4.55;1.23;;;22.80;62.90;;;;;;5055590;28;20053;-47
2022/08/30 10:52:19;;;;;;;3.58;1.20;;;22.90;62.30;;;;;;5049418;28;20425;-48
2022/08/30 10:55:08;;;;;;;1.58;0.82;;;22.90;62.30;;;;;;5053488;28;20035;-50
2022/08/30 10:57:35;;;;;;;6.95;1.20;;;23.00;61.00;;;;;;5069462;28;20052;-47
2022/08/30 11:00:09;;;;;;;3.65;0.93;;;22.90;62.00;;;;;;5061342;28;20028;-47
2022/08/30 11:03:03;;;;;;;5.68;1.88;;;22.90;61.10;;;;;;5051588;28;20458;-49
2022/08/30 11:05:47;;;;;;;5.18;1.65;;;22.90;62.90;;;;;;5054152;28;20036;-47
2022/08/30 11:08:56;;;;;;;2.22;0.90;;;22.90;63.90;;;;;;5048745;28;20020;-49
2022/08/30 11:12:23;;;;;;;4.53;0.65;;;23.00;60.70;;;;;;5011170;28;20124;-48
2022/08/30 11:14:51;;;;;;;2.28;1.23;;;22.80;59.40;;;;;;4965455;28;20061;-47
2022/08/30 11:18:02;;;;;;;2.95;0.90;;;22.90;61.10;;;;;;5059733;28;20045;-47
2022/08/30 11:20:55;;;;;;;2.15;1.05;;;22.90;60.40;;;;;;5025459;28;20110;-47
2022/08/30 11:23:21;;;;;;;3.78;1.10;;;22.90;61.50;;;;;;5065772;28;20028;-48
2022/08/30 11:25:58;;;;;;;1.85;0.88;;;22.90;61.70;;;;;;5055493;28;20335;-50
2022/08/30 11:28:38;;;;;;;3.83;1.00;;;22.90;61.00;;;;;;5052802;28;20021;-48
2022/08/30 11:31:19;;;;;;;4.57;1.27;;;22.70;60.90;;;;;;5060914;28;20029;-49
2022/08/30 11:33:46;;;;;;;2.55;1.13;;;22.80;62.60;;;;;;5054756;28;20060;-49
2022/08/30 11:36:31;;;;;;;2.35;0.95;;;22.70;62.10;;;;;;5064099;28;20430;-47
2022/08/30 11:39:07;;;;;;;2.75;1.02;;;22.60;63.60;;;;;;5059190;28;20043;-47
2022/08/30 11:42:12;;;;;;;5.90;1.40;;;22.60;63.70;;;;;;5049008;28;20035;-47
2022/08/30 11:44:39;;;;;;;2.63;0.88;;;22.70;64.20;;;;;;5049583;28;20033;-48
2022/08/30 11:47:42;;;;;;;3.78;1.40;;;22.60;62.00;;;;;;5050326;28;20033;-47
2022/08/30 11:50:15;;;;;;;4.75;1.23;;;22.70;61.70;;;;;;5043651;28;20033;-49
2022/08/30 11:52:53;;;;;;;3.53;1.42;;;22.70;62.40;;;;;;5032275;28;20029;-51
2022/08/30 11:55:55;;;;;;;7.15;1.15;;;22.60;61.70;;;;;;5051716;28;20036;-48
2022/08/30 11:58:48;;;;;;;2.15;0.95;;;22.70;63.90;;;;;;5036308;28;20034;-48
2022/08/30 12:01:19;;;;;;;2.67;0.77;;;22.80;61.70;;;;;;5032653;28;20435;-48
2022/08/30 12:03:53;;;;;;;4.03;1.25;;;22.90;60.90;;;;;;5042202;28;20887;-48
2022/08/30 12:06:41;;;;;;;2.47;0.93;;;22.80;61.30;;;;;;5049957;28;20021;-49
2022/08/30 12:09:24;;;;;;;6.28;1.27;;;22.90;60.10;;;;;;5017783;28;20037;-47
2022/08/30 12:12:08;;;;;;;4.85;1.02;;;22.60;61.40;;;;;;5044989;28;20021;-47
2022/08/30 12:14:38;;;;;;;9.77;2.03;;;22.70;61.60;;;;;;5045741;28;20091;-48
2022/08/30 12:20:24;;;;;;;2.08;0.70;;;22.50;61.20;;;;;;5031529;28;20370;-48
2022/08/30 12:22:53;;;;;;;2.58;1.02;;;22.70;61.30;;;;;;5043712;28;20025;-47
2022/08/30 12:25:32;;;;;;;2.60;0.80;;;22.80;59.50;;;;;;5029627;28;20358;-47
2022/08/30 12:28:25;;;;;;;1.63;0.82;;;22.60;58.60;;;;;;5045924;28;20091;-50
2022/08/30 12:30:52;;;;;;;2.42;0.98;;;22.80;58.50;;;;;;5014388;28;20025;-48
2022/08/30 12:33:31;;;;;;;6.45;0.88;;;22.60;58.20;;;;;;5031687;28;20116;-49
2022/08/30 12:36:00;;;;;;;2.65;0.80;;;22.40;60.20;;;;;;5037204;28;20075;-48
2022/08/30 12:38:28;;;;;;;6.10;1.02;;;22.50;60.50;;;;;;5032743;28;20029;-50
2022/08/30 12:40:59;;;;;;;5.82;1.38;;;22.70;60.30;;;;;;5037598;28;20037;-47
2022/08/30 12:43:48;;;;;;;4.72;1.45;;;22.70;59.90;;;;;;5019467;28;20033;-47
2022/08/30 12:46:16;;;;;;;7.30;1.40;;;22.70;59.80;;;;;;5051416;28;20054;-50
2022/08/30 12:48:44;;;;;;;7.50;1.40;;;22.60;59.90;;;;;;5046868;28;20048;-49
2022/08/30 12:51:27;;;;;;;5.18;2.00;;;22.60;61.30;;;;;;5065051;28;20043;-48
2022/08/30 12:53:52;;;;;;;5.45;1.45;;;22.50;61.90;;;;;;5042831;28;20075;-47
2022/08/30 12:56:19;;;;;;;5.32;0.90;;;22.40;61.70;;;;;;5068007;28;20052;-47
2022/08/30 12:58:49;;;;;;;4.88;1.30;;;22.30;61.20;;;;;;5069838;28;20029;-49
2022/08/30 13:01:26;;;;;;;1.48;0.90;;;22.20;63.30;;;;;;5069269;28;20035;-51
2022/08/30 13:04:01;;;;;;;2.35;1.10;;;22.10;62.40;;;;;;5057847;28;20401;-46
2022/08/30 13:06:49;;;;;;;3.00;1.60;;;22.00;63.30;;;;;;5051579;28;20101;-47
2022/08/30 13:09:28;;;;;;;4.55;1.58;;;22.10;63.90;;;;;;5034227;28;20111;-47
2022/08/30 13:11:56;;;;;;;7.70;1.90;;;22.10;63.60;;;;;;5055983;28;20445;-47
2022/08/30 13:14:39;;;;;;;4.15;1.98;;;22.00;63.80;;;;;;5061758;28;20032;-47
2022/08/30 13:17:07;;;;;;;2.85;1.40;;;21.90;65.50;;;;;;5054312;28;20044;-49